Time;durP1;ratioP1;P1;durP2;ratioP2;P2;SDS_P1;SDS_P2;PMS_P1;PMS_P2;Temp;Humidity;BMP_temperature;BMP_pressure;BME280_temperature;BME280_humidity;BME280_pressure;Samples;Min_cycle;Max_cycle;Signal;HPM_P1;HPM_P2
2021/04/25 00:01:14;;;;;;;3.90;3.10;;;14.10;1.00;;;;;;5059077;28;20529;-80
2021/04/25 00:03:41;;;;;;;5.63;2.67;;;14.20;1.00;;;;;;5056767;28;20471;-77
2021/04/25 00:06:10;;;;;;;3.53;2.40;;;14.20;1.00;;;;;;5054563;28;20485;-78
2021/04/25 00:08:37;;;;;;;3.60;3.03;;;14.30;1.00;;;;;;5042565;28;20464;-78
2021/04/25 00:11:05;;;;;;;3.10;2.73;;;14.20;1.00;;;;;;5045611;28;20979;-81
2021/04/25 00:13:32;;;;;;;5.50;3.23;;;14.20;1.00;;;;;;5049378;28;20488;-79
2021/04/25 00:15:59;;;;;;;5.33;2.70;;;14.10;1.00;;;;;;5053405;28;20487;-78
2021/04/25 00:18:27;;;;;;;5.40;2.37;;;14.10;1.00;;;;;;5051956;28;20472;-78
2021/04/25 00:20:54;;;;;;;4.27;2.70;;;14.10;1.00;;;;;;5053454;28;20465;-79
2021/04/25 00:23:22;;;;;;;4.87;3.00;;;14.00;1.00;;;;;;5044514;28;20479;-80
2021/04/25 00:25:49;;;;;;;3.30;2.70;;;14.00;1.00;;;;;;5049701;28;21595;-80
2021/04/25 00:28:17;;;;;;;3.53;2.27;;;14.00;1.00;;;;;;5043491;28;21376;-81
2021/04/25 00:30:45;;;;;;;4.70;2.47;;;13.90;1.00;;;;;;5054020;28;20995;-80
2021/04/25 00:33:12;;;;;;;4.87;3.03;;;13.90;1.00;;;;;;5043029;28;21085;-80
2021/04/25 00:35:39;;;;;;;4.20;2.50;;;13.90;1.00;;;;;;5046042;28;20488;-80
2021/04/25 00:38:06;;;;;;;6.77;2.47;;;13.90;1.00;;;;;;5047422;28;20539;-82
2021/04/25 00:40:35;;;;;;;4.30;3.10;;;13.80;1.00;;;;;;5050067;28;20457;-81
2021/04/25 00:43:02;;;;;;;5.03;2.70;;;13.80;1.00;;;;;;5055075;28;20489;-80
2021/04/25 00:45:29;;;;;;;5.40;3.03;;;13.70;1.00;;;;;;5046350;28;20475;-82
2021/04/25 00:47:56;;;;;;;3.80;2.10;;;13.70;1.00;;;;;;5037786;28;22294;-78
2021/04/25 00:50:25;;;;;;;3.77;2.50;;;13.70;1.00;;;;;;5041420;28;20487;-83
2021/04/25 00:52:55;;;;;;;5.00;2.10;;;13.70;1.00;;;;;;5051644;28;20462;-78
2021/04/25 00:55:25;;;;;;;3.20;2.70;;;13.70;1.00;;;;;;5057307;28;20477;-82
2021/04/25 00:57:55;;;;;;;4.10;2.80;;;13.70;1.00;;;;;;5055619;28;20524;-78
2021/04/25 01:00:23;;;;;;;2.93;2.50;;;13.60;1.00;;;;;;5050842;28;20465;-80
2021/04/25 01:02:50;;;;;;;3.17;2.57;;;13.60;1.00;;;;;;5050578;28;20453;-78
2021/04/25 01:05:19;;;;;;;3.93;2.57;;;13.60;1.00;;;;;;5061956;28;21088;-81
2021/04/25 01:07:46;;;;;;;2.43;2.10;;;13.60;1.00;;;;;;5056412;28;20527;-81
2021/04/25 01:10:14;;;;;;;6.27;2.67;;;13.50;1.00;;;;;;5051957;28;20489;-83
2021/04/25 01:12:43;;;;;;;3.60;2.63;;;13.50;1.00;;;;;;5045867;28;20451;-78
2021/04/25 01:15:13;;;;;;;4.33;2.80;;;13.40;1.00;;;;;;5045776;28;20541;-80
2021/04/25 01:17:41;;;;;;;4.50;2.53;;;13.40;1.00;;;;;;5056963;28;20473;-80
2021/04/25 01:20:10;;;;;;;4.20;2.50;;;13.40;1.00;;;;;;5062992;28;20489;-80
2021/04/25 01:22:39;;;;;;;3.13;2.80;;;13.30;1.00;;;;;;5061783;28;20529;-79
2021/04/25 01:25:08;;;;;;;3.30;2.00;;;13.30;1.00;;;;;;5062233;28;20500;-79
2021/04/25 01:27:36;;;;;;;3.07;2.10;;;13.40;1.00;;;;;;5043461;28;20463;-79
2021/04/25 01:30:04;;;;;;;3.27;2.83;;;13.40;1.00;;;;;;5053028;28;20464;-80
2021/04/25 01:32:32;;;;;;;4.07;2.60;;;13.40;1.00;;;;;;5055877;28;20540;-81
2021/04/25 01:35:00;;;;;;;4.50;2.30;;;13.30;1.00;;;;;;5049405;28;20482;-81
2021/04/25 01:37:27;;;;;;;5.87;3.20;;;13.20;1.00;;;;;;5063920;28;20548;-81
2021/04/25 01:39:55;;;;;;;3.80;2.83;;;13.20;1.00;;;;;;5056391;28;20897;-83
2021/04/25 01:42:22;;;;;;;3.10;2.00;;;13.20;1.00;;;;;;5057953;28;20454;-79
2021/04/25 01:44:49;;;;;;;3.37;2.50;;;13.20;1.00;;;;;;5047458;28;20546;-80
2021/04/25 01:47:16;;;;;;;7.17;2.43;;;13.20;1.00;;;;;;5048049;28;20479;-81
2021/04/25 01:49:44;;;;;;;3.90;2.90;;;13.20;1.00;;;;;;5057160;28;20457;-81
2021/04/25 01:52:11;;;;;;;2.67;2.30;;;13.20;1.00;;;;;;5049742;28;20466;-81
2021/04/25 01:54:38;;;;;;;3.13;2.80;;;13.20;1.00;;;;;;5046726;28;20558;-81
2021/04/25 01:57:07;;;;;;;4.30;2.60;;;13.10;1.00;;;;;;5050856;28;20460;-80
2021/04/25 01:59:34;;;;;;;6.17;2.40;;;13.10;1.00;;;;;;5042359;28;20474;-81
2021/04/25 02:02:01;;;;;;;6.57;3.03;;;13.00;1.00;;;;;;5051651;28;20459;-81
2021/04/25 02:04:29;;;;;;;4.17;2.40;;;13.00;1.00;;;;;;5054911;28;20905;-81
2021/04/25 02:06:56;;;;;;;4.40;3.40;;;12.90;1.00;;;;;;5046595;28;20468;-80
2021/04/25 02:09:24;;;;;;;7.00;4.57;;;12.90;1.00;;;;;;5046944;28;20470;-80
2021/04/25 02:11:51;;;;;;;5.23;3.40;;;12.90;1.00;;;;;;5045287;28;21966;-80
2021/04/25 02:14:19;;;;;;;5.27;3.10;;;12.80;1.00;;;;;;5053826;28;21072;-81
2021/04/25 02:16:46;;;;;;;3.63;2.90;;;12.70;1.00;;;;;;5057366;28;20460;-81
2021/04/25 02:19:14;;;;;;;4.03;2.50;;;12.70;1.00;;;;;;5057411;28;20963;-80
2021/04/25 02:21:41;;;;;;;7.77;2.80;;;12.70;1.00;;;;;;5046437;28;20461;-82
2021/04/25 02:24:09;;;;;;;3.23;2.63;;;12.70;1.00;;;;;;5052964;28;20508;-82
2021/04/25 02:26:36;;;;;;;6.57;2.70;;;12.70;1.00;;;;;;5049735;28;20954;-82
2021/04/25 02:29:04;;;;;;;3.50;2.50;;;12.80;1.00;;;;;;5051372;28;20550;-79
2021/04/25 02:31:32;;;;;;;4.20;2.50;;;12.80;1.00;;;;;;5050171;28;20545;-81
2021/04/25 02:34:00;;;;;;;3.43;2.70;;;12.90;1.00;;;;;;5044574;28;20482;-82
2021/04/25 02:36:27;;;;;;;2.60;2.37;;;12.70;1.00;;;;;;5054408;28;20467;-81
2021/04/25 02:38:54;;;;;;;4.03;2.30;;;12.60;1.00;;;;;;5046866;28;20834;-81
2021/04/25 02:41:21;;;;;;;3.50;2.50;;;12.50;1.00;;;;;;5053019;28;20491;-82
2021/04/25 02:43:48;;;;;;;6.20;2.43;;;12.40;1.00;;;;;;5074753;28;20522;-80
2021/04/25 02:46:16;;;;;;;2.63;2.23;;;12.40;1.00;;;;;;5050262;28;20479;-82
2021/04/25 02:48:44;;;;;;;3.10;2.20;;;12.30;1.00;;;;;;5058957;28;20589;-81
2021/04/25 02:51:12;;;;;;;3.90;2.63;;;12.40;1.00;;;;;;5046099;28;20502;-82
2021/04/25 02:53:39;;;;;;;2.20;2.00;;;12.40;1.00;;;;;;5050577;28;20451;-81
2021/04/25 02:56:06;;;;;;;6.50;3.27;;;12.50;1.00;;;;;;5049256;28;20472;-83
2021/04/25 02:58:33;;;;;;;4.23;2.43;;;12.50;1.00;;;;;;5049791;28;20466;-81
2021/04/25 03:01:00;;;;;;;2.90;2.70;;;12.50;1.00;;;;;;5043605;28;21386;-82
2021/04/25 03:03:27;;;;;;;3.03;2.83;;;12.40;1.00;;;;;;5054759;28;20545;-82
2021/04/25 03:05:57;;;;;;;3.17;2.40;;;12.40;1.00;;;;;;5052073;28;20524;-81
2021/04/25 03:08:24;;;;;;;6.70;3.00;;;12.30;1.00;;;;;;5055035;28;20531;-80
2021/04/25 03:10:51;;;;;;;3.37;2.43;;;12.30;1.00;;;;;;5046410;28;20461;-82
2021/04/25 03:13:19;;;;;;;2.80;2.33;;;12.30;1.00;;;;;;5050965;28;20479;-81
2021/04/25 03:15:46;;;;;;;4.10;3.27;;;12.30;1.00;;;;;;5051357;28;20519;-81
2021/04/25 03:18:13;;;;;;;4.50;3.00;;;12.20;1.00;;;;;;5046757;28;20460;-82
2021/04/25 03:20:41;;;;;;;3.47;2.37;;;12.20;1.00;;;;;;5046439;28;20517;-80
2021/04/25 03:23:09;;;;;;;5.13;2.60;;;12.20;1.00;;;;;;5049794;28;20493;-81
2021/04/25 03:25:36;;;;;;;3.23;2.97;;;12.20;1.00;;;;;;5051696;28;21233;-81
2021/04/25 03:28:04;;;;;;;3.40;2.80;;;12.20;1.00;;;;;;5047629;28;20471;-81
2021/04/25 03:30:31;;;;;;;6.57;2.93;;;12.10;1.00;;;;;;5045134;28;20470;-79
2021/04/25 03:32:58;;;;;;;6.50;3.10;;;12.10;1.00;;;;;;5044954;28;20461;-81
2021/04/25 03:35:26;;;;;;;5.80;3.00;;;12.10;1.00;;;;;;5046374;28;20462;-82
2021/04/25 03:37:53;;;;;;;4.40;2.47;;;12.00;1.00;;;;;;5053587;28;20463;-83
2021/04/25 03:40:21;;;;;;;2.63;2.43;;;12.00;1.00;;;;;;5054396;28;20761;-81
2021/04/25 03:42:49;;;;;;;5.47;3.00;;;11.90;1.00;;;;;;5044904;28;20465;-81
2021/04/25 03:45:18;;;;;;;3.50;2.80;;;12.00;1.00;;;;;;5050259;28;21353;-81
2021/04/25 03:47:48;;;;;;;5.30;3.30;;;11.90;1.00;;;;;;5057290;28;20454;-81
2021/04/25 03:50:17;;;;;;;4.10;2.50;;;11.90;1.00;;;;;;5048586;28;20452;-79
2021/04/25 03:52:45;;;;;;;4.53;2.90;;;11.90;1.00;;;;;;5049994;28;20548;-82
2021/04/25 03:55:14;;;;;;;4.27;3.00;;;11.80;1.00;;;;;;5046750;28;20473;-82
2021/04/25 03:57:42;;;;;;;4.80;3.13;;;11.80;1.00;;;;;;5038966;28;20547;-81
2021/04/25 04:00:12;;;;;;;3.77;3.37;;;11.80;1.00;;;;;;5047399;28;20522;-79
2021/04/25 04:02:39;;;;;;;6.60;3.13;;;11.80;1.00;;;;;;5052085;28;20517;-81
2021/04/25 04:05:08;;;;;;;5.80;3.07;;;11.80;1.00;;;;;;5063423;28;20486;-82
2021/04/25 04:07:35;;;;;;;6.43;2.40;;;11.80;1.00;;;;;;5060797;28;20470;-81
2021/04/25 04:10:03;;;;;;;6.63;3.40;;;11.70;1.00;;;;;;5055412;28;20483;-80
2021/04/25 04:12:30;;;;;;;5.17;3.30;;;11.80;1.00;;;;;;5051576;28;20972;-80
2021/04/25 04:14:58;;;;;;;4.83;2.93;;;11.60;1.00;;;;;;5051672;28;21191;-81
2021/04/25 04:17:26;;;;;;;4.00;2.80;;;11.50;1.00;;;;;;5055615;28;20446;-80
2021/04/25 04:19:53;;;;;;;4.20;3.07;;;11.90;1.00;;;;;;5050427;28;21533;-81
2021/04/25 04:22:20;;;;;;;5.20;2.60;;;11.70;1.00;;;;;;5046148;28;20525;-81
2021/04/25 04:24:47;;;;;;;3.60;3.00;;;11.70;1.00;;;;;;5051150;28;20525;-81
2021/04/25 04:27:14;;;;;;;3.73;3.27;;;11.70;1.00;;;;;;5055435;28;20471;-82
2021/04/25 04:29:42;;;;;;;3.37;3.00;;;11.70;1.00;;;;;;5049832;28;20650;-81
2021/04/25 04:32:09;;;;;;;3.67;3.07;;;11.70;1.00;;;;;;5049054;28;20497;-82
2021/04/25 04:34:37;;;;;;;2.97;2.73;;;11.60;1.00;;;;;;5051211;28;21082;-81
2021/04/25 04:37:04;;;;;;;3.40;2.40;;;11.60;1.00;;;;;;5044699;28;20458;-81
2021/04/25 04:39:32;;;;;;;2.97;2.67;;;11.60;1.00;;;;;;5055907;28;20475;-81
2021/04/25 04:41:59;;;;;;;4.07;2.33;;;11.60;1.00;;;;;;5052943;28;20618;-81
2021/04/25 04:44:26;;;;;;;3.47;2.93;;;11.60;1.00;;;;;;5049543;28;20495;-81
2021/04/25 04:46:54;;;;;;;6.50;3.40;;;11.60;1.00;;;;;;5056592;28;21162;-80
2021/04/25 04:49:22;;;;;;;5.07;2.67;;;11.30;1.00;;;;;;5048069;28;20453;-80
2021/04/25 04:51:49;;;;;;;3.87;3.30;;;11.60;1.00;;;;;;5045492;28;20466;-78
2021/04/25 04:54:16;;;;;;;11.10;5.83;;;11.50;1.00;;;;;;5052561;28;20471;-80
2021/04/25 04:56:44;;;;;;;22.07;9.77;;;11.50;1.00;;;;;;5057027;28;21008;-80
2021/04/25 04:59:11;;;;;;;13.07;5.83;;;11.40;1.00;;;;;;5051889;28;20468;-82
2021/04/25 05:01:38;;;;;;;9.50;5.20;;;11.40;1.00;;;;;;5051948;28;20474;-82
2021/04/25 05:04:06;;;;;;;10.83;5.97;;;11.40;1.00;;;;;;5057139;28;20497;-82
2021/04/25 05:06:34;;;;;;;6.77;3.90;;;11.40;1.00;;;;;;5047826;28;20465;-82
2021/04/25 05:09:01;;;;;;;9.00;4.20;;;11.40;1.00;;;;;;5047804;28;20479;-81
2021/04/25 05:11:28;;;;;;;5.07;3.07;;;11.40;1.00;;;;;;5048149;28;20930;-79
2021/04/25 05:13:56;;;;;;;6.30;3.57;;;11.40;1.00;;;;;;5040790;28;20467;-80
2021/04/25 05:16:23;;;;;;;7.27;3.33;;;11.40;1.00;;;;;;5048391;28;20485;-82
2021/04/25 05:18:50;;;;;;;6.53;4.17;;;11.40;1.00;;;;;;5050921;28;20476;-82
2021/04/25 05:21:17;;;;;;;7.13;3.03;;;11.40;1.00;;;;;;5061083;28;20456;-83
2021/04/25 05:23:45;;;;;;;4.33;3.17;;;11.40;1.00;;;;;;5051149;28;20502;-84
2021/04/25 05:26:14;;;;;;;5.50;3.03;;;11.40;1.00;;;;;;5048874;28;20475;-79
2021/04/25 05:28:41;;;;;;;6.17;3.33;;;11.40;1.00;;;;;;5041873;28;20976;-77
2021/04/25 05:31:08;;;;;;;5.95;3.78;;;11.40;1.00;;;;;;5041521;28;20453;-81
2021/04/25 05:33:35;;;;;;;6.10;4.00;;;11.50;1.00;;;;;;5044964;28;20470;-78
2021/04/25 05:36:03;;;;;;;5.77;3.97;;;11.40;1.00;;;;;;5039652;28;20242;-81
2021/04/25 05:38:30;;;;;;;5.60;3.27;;;11.30;1.00;;;;;;5041951;28;20514;-81
2021/04/25 05:40:58;;;;;;;9.30;3.73;;;11.50;1.00;;;;;;5042313;28;20964;-78
2021/04/25 05:43:25;;;;;;;6.73;4.03;;;11.50;1.00;;;;;;5044039;28;20550;-78
2021/04/25 05:45:52;;;;;;;4.67;3.73;;;11.40;1.00;;;;;;5043451;28;21480;-79
2021/04/25 05:48:19;;;;;;;6.67;3.53;;;11.50;1.00;;;;;;5049128;28;20471;-79
2021/04/25 05:50:47;;;;;;;4.20;3.50;;;11.60;1.00;;;;;;5043198;28;20469;-78
2021/04/25 05:53:14;;;;;;;5.20;3.97;;;11.70;1.00;;;;;;5044023;28;20458;-78
2021/04/25 05:55:42;;;;;;;5.07;3.60;;;11.60;1.00;;;;;;5039347;28;20563;-80
2021/04/25 05:58:10;;;;;;;6.47;3.47;;;11.70;1.00;;;;;;5046154;28;21187;-81
2021/04/25 06:00:39;;;;;;;7.20;4.10;;;11.70;1.00;;;;;;5058031;28;20529;-82
2021/04/25 06:03:07;;;;;;;6.30;4.17;;;11.70;1.00;;;;;;5053781;28;20510;-82
2021/04/25 06:05:35;;;;;;;5.20;3.57;;;11.80;1.00;;;;;;5059502;28;21032;-84
2021/04/25 06:08:02;;;;;;;5.97;3.80;;;11.80;1.00;;;;;;5052400;28;20472;-81
2021/04/25 06:10:30;;;;;;;6.90;5.27;;;11.80;1.00;;;;;;5052254;28;20522;-81
2021/04/25 06:12:57;;;;;;;8.67;4.90;;;11.80;1.00;;;;;;5049032;28;20461;-82
2021/04/25 06:15:26;;;;;;;8.30;4.53;;;12.00;1.00;;;;;;5056104;28;20469;-82
2021/04/25 06:17:53;;;;;;;6.17;4.37;;;12.20;1.00;;;;;;5055130;28;20545;-84
2021/04/25 06:20:22;;;;;;;4.50;3.97;;;12.30;1.00;;;;;;5048539;28;20461;-82
2021/04/25 06:22:49;;;;;;;7.37;4.90;;;12.50;1.00;;;;;;5046513;28;20464;-82
2021/04/25 06:25:18;;;;;;;7.03;4.47;;;12.70;1.00;;;;;;5044957;28;20483;-81
2021/04/25 06:27:45;;;;;;;10.20;4.80;;;13.00;1.00;;;;;;5043803;28;20467;-82
2021/04/25 06:30:14;;;;;;;5.60;4.23;;;13.20;1.00;;;;;;5044200;28;20740;-82
2021/04/25 06:32:42;;;;;;;6.13;4.23;;;13.40;1.00;;;;;;5041081;28;20527;-81
2021/04/25 06:35:12;;;;;;;6.70;5.07;;;13.60;2.20;;;;;;5041494;28;20993;-81
2021/04/25 06:37:40;;;;;;;6.07;4.17;;;13.50;1.30;;;;;;5042798;28;20454;-80
2021/04/25 06:40:09;;;;;;;5.60;4.20;;;13.90;3.30;;;;;;5042178;28;20479;-79
2021/04/25 06:42:38;;;;;;;7.60;5.20;;;14.10;3.70;;;;;;5042372;28;22048;-80
2021/04/25 06:45:08;;;;;;;6.83;4.63;;;14.20;6.10;;;;;;5052253;28;20223;-81
2021/04/25 06:47:35;;;;;;;7.70;5.13;;;14.50;5.20;;;;;;5055079;28;21072;-82
2021/04/25 06:50:05;;;;;;;6.70;4.30;;;14.50;5.50;;;;;;5047686;28;20452;-81
2021/04/25 06:52:33;;;;;;;7.63;4.70;;;14.60;4.90;;;;;;5054450;28;20470;-82
2021/04/25 06:55:00;;;;;;;6.10;4.90;;;14.70;6.10;;;;;;5051168;28;20470;-81
2021/04/25 06:57:29;;;;;;;5.97;4.97;;;14.80;5.90;;;;;;5051563;28;20876;-82
2021/04/25 06:59:56;;;;;;;7.73;5.70;;;14.90;6.10;;;;;;5051255;28;20461;-79
2021/04/25 07:02:24;;;;;;;7.43;4.90;;;15.10;8.40;;;;;;5048861;28;20450;-82
2021/04/25 07:04:52;;;;;;;7.20;4.67;;;15.50;10.70;;;;;;5050283;28;20576;-82
2021/04/25 07:07:20;;;;;;;7.80;4.90;;;15.60;11.00;;;;;;5051808;28;22002;-81
2021/04/25 07:09:47;;;;;;;9.50;5.10;;;15.50;8.70;;;;;;5056320;28;20527;-83
2021/04/25 07:12:15;;;;;;;10.07;5.50;;;15.30;5.50;;;;;;5050354;28;20470;-83
2021/04/25 07:14:42;;;;;;;6.80;4.80;;;15.40;8.50;;;;;;5051840;28;20482;-83
2021/04/25 07:17:09;;;;;;;8.27;5.00;;;15.70;12.20;;;;;;5054548;28;20444;-81
2021/04/25 07:19:37;;;;;;;6.43;5.50;;;15.90;14.10;;;;;;5052121;28;20460;-83
2021/04/25 07:22:04;;;;;;;8.17;5.70;;;16.00;14.30;;;;;;5052809;28;20449;-82
2021/04/25 07:24:33;;;;;;;6.80;5.60;;;16.20;15.60;;;;;;5054791;28;20489;-82
2021/04/25 07:27:00;;;;;;;6.13;4.83;;;16.60;18.20;;;;;;5050665;28;20467;-81
2021/04/25 07:29:28;;;;;;;6.20;5.47;;;16.90;19.10;;;;;;5051965;28;20467;-84
2021/04/25 07:31:55;;;;;;;7.07;5.60;;;16.90;18.70;;;;;;5051208;28;20455;-81
2021/04/25 07:34:23;;;;;;;8.97;5.60;;;16.90;17.30;;;;;;5054559;28;20468;-81
2021/04/25 07:36:50;;;;;;;10.17;6.00;;;17.00;19.20;;;;;;5049733;28;20471;-80
2021/04/25 07:39:17;;;;;;;10.23;5.80;;;16.80;16.10;;;;;;5054115;28;20830;-82
2021/04/25 07:41:45;;;;;;;7.60;5.87;;;16.70;15.80;;;;;;5050936;28;20447;-83
2021/04/25 07:44:12;;;;;;;9.63;5.97;;;16.90;20.90;;;;;;5055109;28;20452;-81
2021/04/25 07:46:40;;;;;;;6.93;5.17;;;17.10;19.70;;;;;;5061376;28;20532;-82
2021/04/25 07:49:11;;;;;;;8.50;5.77;;;17.20;18.00;;;;;;5054249;28;20461;-80
2021/04/25 07:51:38;;;;;;;9.13;6.90;;;17.20;19.10;;;;;;5053365;28;20470;-82
2021/04/25 07:54:06;;;;;;;9.60;6.30;;;17.10;19.10;;;;;;5057433;28;20464;-82
2021/04/25 07:56:33;;;;;;;8.43;6.07;;;17.00;16.30;;;;;;5053386;28;20480;-82
2021/04/25 07:59:01;;;;;;;8.47;5.43;;;17.00;17.40;;;;;;5050503;28;20458;-81
2021/04/25 08:01:29;;;;;;;6.77;5.37;;;17.00;17.00;;;;;;5055308;28;20480;-81
2021/04/25 08:03:57;;;;;;;8.97;6.33;;;16.90;17.40;;;;;;5054660;28;21083;-85
2021/04/25 08:06:25;;;;;;;7.20;6.17;;;17.10;16.60;;;;;;5064023;28;20475;-83
2021/04/25 08:08:52;;;;;;;7.77;6.33;;;17.00;15.30;;;;;;5053680;28;20444;-82
2021/04/25 08:11:21;;;;;;;9.23;6.30;;;17.00;16.10;;;;;;5054786;28;20555;-84
2021/04/25 08:13:48;;;;;;;8.07;5.73;;;17.00;15.60;;;;;;5061895;28;22208;-83
2021/04/25 08:16:16;;;;;;;8.43;6.60;;;17.00;17.80;;;;;;5054048;28;20509;-80
2021/04/25 08:18:43;;;;;;;8.70;5.90;;;17.10;16.60;;;;;;5056586;28;20606;-80
2021/04/25 08:21:10;;;;;;;11.27;6.10;;;17.10;18.20;;;;;;5053885;28;20448;-80
2021/04/25 08:23:38;;;;;;;9.20;6.03;;;17.10;17.00;;;;;;5054148;28;20622;-81
2021/04/25 08:26:05;;;;;;;6.50;5.97;;;17.20;17.80;;;;;;5048320;28;20486;-81
2021/04/25 08:28:32;;;;;;;8.60;5.67;;;17.20;16.30;;;;;;5051992;28;20459;-79
2021/04/25 08:30:59;;;;;;;7.57;5.50;;;17.20;17.40;;;;;;5054008;28;20461;-81
2021/04/25 08:33:27;;;;;;;8.10;5.10;;;17.20;18.90;;;;;;5049465;28;20453;-81
2021/04/25 08:35:55;;;;;;;9.53;6.27;;;17.40;20.10;;;;;;5057739;28;20469;-80
2021/04/25 08:38:22;;;;;;;10.73;6.67;;;17.40;19.50;;;;;;5062254;28;20455;-80
2021/04/25 08:40:49;;;;;;;12.97;5.97;;;17.40;18.80;;;;;;5061396;28;20465;-80
2021/04/25 08:43:17;;;;;;;7.40;5.93;;;17.40;18.60;;;;;;5047073;28;20486;-80
2021/04/25 08:45:46;;;;;;;6.77;5.53;;;17.30;16.00;;;;;;5059947;28;20487;-81
2021/04/25 08:48:15;;;;;;;7.43;6.60;;;17.30;16.40;;;;;;5048795;28;20461;-80
2021/04/25 08:50:43;;;;;;;6.50;5.60;;;17.20;14.40;;;;;;5056296;28;20469;-82
2021/04/25 08:53:11;;;;;;;7.73;5.50;;;17.30;17.10;;;;;;5060960;28;20467;-82
2021/04/25 08:55:39;;;;;;;6.50;4.70;;;17.30;17.60;;;;;;5061247;28;20471;-81
2021/04/25 08:58:08;;;;;;;22.07;10.67;;;17.30;16.80;;;;;;5059013;28;20497;-81
2021/04/25 09:00:36;;;;;;;9.33;7.10;;;17.40;17.20;;;;;;5056637;28;20523;-80
2021/04/25 09:03:03;;;;;;;8.10;6.37;;;17.40;16.80;;;;;;5063839;28;20718;-80
2021/04/25 09:05:31;;;;;;;7.43;5.82;;;17.40;17.40;;;;;;5059987;28;20434;-81
2021/04/25 09:08:01;;;;;;;8.50;6.20;;;17.40;16.80;;;;;;5051788;28;20550;-82
2021/04/25 09:10:33;;;;;;;10.30;6.47;;;17.50;17.40;;;;;;5054487;28;20466;-82
2021/04/25 09:13:13;;;;;;;6.77;5.17;;;17.50;17.60;;;;;;5055435;28;20465;-81
2021/04/25 09:15:40;;;;;;;9.00;6.20;;;17.50;18.00;;;;;;5049371;28;20500;-83
2021/04/25 09:18:08;;;;;;;6.93;5.27;;;17.50;17.30;;;;;;5051456;28;20524;-83
2021/04/25 09:20:39;;;;;;;9.97;5.93;;;17.50;18.00;;;;;;5055234;28;20541;-84
2021/04/25 09:23:10;;;;;;;7.07;5.57;;;17.70;19.20;;;;;;5059159;28;20519;-81
2021/04/25 09:25:38;;;;;;;9.23;7.97;;;17.80;21.30;;;;;;5053596;28;20493;-84
2021/04/25 09:28:14;;;;;;;9.70;6.37;;;17.80;18.70;;;;;;5058577;28;20464;-82
2021/04/25 09:30:54;;;;;;;10.27;7.60;;;17.70;20.40;;;;;;5058959;28;21009;-83
2021/04/25 09:33:24;;;;;;;9.37;6.80;;;17.70;17.40;;;;;;5052257;28;21035;-78
2021/04/25 09:35:51;;;;;;;7.83;5.87;;;17.70;19.30;;;;;;5047168;28;20567;-79
2021/04/25 09:38:19;;;;;;;9.50;6.83;;;17.80;21.30;;;;;;5050287;28;20559;-80
2021/04/25 09:40:49;;;;;;;14.43;8.37;;;17.80;22.20;;;;;;5049595;28;20550;-81
2021/04/25 09:43:18;;;;;;;7.20;5.50;;;17.90;21.30;;;;;;5048759;28;20449;-81
2021/04/25 09:45:47;;;;;;;10.70;6.53;;;17.90;21.40;;;;;;5048976;28;20580;-80
2021/04/25 09:48:26;;;;;;;6.77;6.03;;;17.90;21.60;;;;;;5055317;28;20538;-79
2021/04/25 09:51:14;;;;;;;7.50;6.60;;;17.90;22.20;;;;;;5054350;28;20846;-81
2021/04/25 09:53:43;;;;;;;6.47;5.87;;;18.00;35.10;;;;;;5051240;28;20461;-80
2021/04/25 09:56:11;;;;;;;9.40;6.13;;;18.10;23.80;;;;;;5050711;28;20847;-80
2021/04/25 09:58:59;;;;;;;8.23;5.30;;;18.10;24.40;;;;;;5054636;28;20473;-80
2021/04/25 10:01:27;;;;;;;8.17;5.30;;;18.20;24.10;;;;;;5053518;28;20454;-81
2021/04/25 10:03:54;;;;;;;8.23;6.47;;;18.20;24.30;;;;;;5050208;28;20449;-81
2021/04/25 10:06:22;;;;;;;6.83;5.80;;;18.30;24.40;;;;;;5046917;28;20489;-82
2021/04/25 10:08:52;;;;;;;7.80;6.10;;;18.40;26.10;;;;;;5054391;28;20519;-81
2021/04/25 10:11:21;;;;;;;8.90;7.40;;;18.40;23.80;;;;;;5052873;28;20856;-80
2021/04/25 10:13:48;;;;;;;9.80;6.53;;;18.50;22.30;;;;;;5057911;28;20523;-81
2021/04/25 10:16:18;;;;;;;8.67;6.60;;;18.20;22.10;;;;;;5057558;28;20465;-81
2021/04/25 10:18:45;;;;;;;10.53;7.53;;;18.20;22.40;;;;;;5056149;28;20484;-80
2021/04/25 10:21:13;;;;;;;7.80;6.57;;;18.40;23.00;;;;;;5060492;28;21372;-79
2021/04/25 10:23:41;;;;;;;9.67;7.17;;;18.30;21.80;;;;;;5060088;28;20463;-80
2021/04/25 10:26:11;;;;;;;6.60;6.00;;;18.30;22.80;;;;;;5054796;28;21108;-80
2021/04/25 10:28:42;;;;;;;9.77;5.70;;;18.30;22.30;;;;;;5059301;28;20464;-80
2021/04/25 10:31:13;;;;;;;6.70;5.03;;;18.30;21.40;;;;;;5058256;28;20511;-80
2021/04/25 10:33:58;;;;;;;7.23;5.27;;;18.20;20.70;;;;;;5056906;28;20460;-80
2021/04/25 10:37:04;;;;;;;7.87;5.33;;;18.40;22.20;;;;;;5051207;28;21183;-78
2021/04/25 10:39:44;;;;;;;6.00;4.33;;;18.30;21.90;;;;;;5044254;28;20505;-78
2021/04/25 10:42:33;;;;;;;6.90;5.80;;;18.40;22.40;;;;;;5043691;28;20450;-79
2021/04/25 10:45:17;;;;;;;8.43;4.97;;;18.40;22.90;;;;;;5059633;28;20490;-80
2021/04/25 10:47:48;;;;;;;6.33;4.70;;;18.50;21.00;;;;;;5055529;28;20967;-79
2021/04/25 10:50:42;;;;;;;5.90;4.30;;;18.60;21.00;;;;;;5053944;28;20458;-80
2021/04/25 10:53:35;;;;;;;6.30;5.07;;;18.60;21.30;;;;;;5044099;28;20454;-79
2021/04/25 10:56:29;;;;;;;6.32;4.95;;;18.60;18.60;;;;;;5055596;28;20499;-79
2021/04/25 10:59:28;;;;;;;8.80;5.87;;;18.60;18.30;;;;;;5058100;28;20200;-80
2021/04/25 11:02:00;;;;;;;5.67;4.57;;;18.70;19.60;;;;;;5061945;28;20831;-82
2021/04/25 11:04:56;;;;;;;4.63;4.10;;;18.60;21.50;;;;;;5064036;28;20560;-85
2021/04/25 11:07:45;;;;;;;3.87;3.30;;;18.70;23.10;;;;;;5045343;28;20458;-81
2021/04/25 11:10:19;;;;;;;4.40;3.90;;;18.80;23.30;;;;;;5063204;28;20967;-83
2021/04/25 11:12:47;;;;;;;5.00;4.10;;;18.80;22.80;;;;;;5055776;28;20885;-82
2021/04/25 11:15:48;;;;;;;5.77;3.57;;;18.80;21.40;;;;;;5067321;28;20470;-79
2021/04/25 11:18:51;;;;;;;4.67;3.50;;;18.90;21.80;;;;;;5047847;28;20496;-85
2021/04/25 11:21:44;;;;;;;4.93;4.00;;;18.90;22.70;;;;;;5062742;28;20457;-81
2021/04/25 11:24:35;;;;;;;6.87;4.30;;;19.10;22.80;;;;;;5055351;28;20466;-83
2021/04/25 11:27:06;;;;;;;4.17;3.43;;;19.00;19.20;;;;;;5069126;28;20442;-84
2021/04/25 11:29:59;;;;;;;5.10;3.50;;;19.00;20.00;;;;;;5067463;28;20446;-82
2021/04/25 11:32:38;;;;;;;4.80;3.57;;;19.10;21.80;;;;;;5072502;28;20446;-81
2021/04/25 11:35:13;;;;;;;7.13;5.50;;;19.10;22.40;;;;;;5066091;28;20476;-83
2021/04/25 11:37:43;;;;;;;5.80;5.13;;;19.20;23.50;;;;;;5058679;28;20976;-83
2021/04/25 11:40:12;;;;;;;7.50;6.90;;;19.20;23.70;;;;;;5043829;28;20444;-78
2021/04/25 11:42:49;;;;;;;4.77;4.30;;;19.20;22.40;;;;;;5064305;28;20472;-80
2021/04/25 11:45:25;;;;;;;6.47;4.47;;;19.20;24.60;;;;;;5061940;28;20496;-81
2021/04/25 11:47:56;;;;;;;6.27;4.43;;;19.30;24.20;;;;;;5063228;28;20458;-78
2021/04/25 11:50:29;;;;;;;6.87;4.40;;;19.20;22.00;;;;;;5055455;28;20466;-78
2021/04/25 11:52:57;;;;;;;6.60;3.83;;;19.20;22.50;;;;;;5057397;28;20449;-77
2021/04/25 11:55:24;;;;;;;3.87;2.80;;;19.20;22.00;;;;;;5056442;28;21108;-75
2021/04/25 11:57:53;;;;;;;3.37;3.07;;;19.20;20.60;;;;;;5057994;28;21290;-78
2021/04/25 12:00:23;;;;;;;5.20;3.27;;;19.10;20.00;;;;;;5060627;28;20446;-76
2021/04/25 12:02:53;;;;;;;5.27;3.20;;;19.00;18.20;;;;;;5062573;28;20984;-76
2021/04/25 12:05:24;;;;;;;4.33;2.60;;;19.20;18.90;;;;;;5060392;28;20890;-78
2021/04/25 12:07:53;;;;;;;5.10;2.97;;;19.10;17.90;;;;;;5061639;28;20468;-77
2021/04/25 12:10:29;;;;;;;5.13;3.40;;;19.00;16.80;;;;;;5061693;28;20451;-78
2021/04/25 12:13:09;;;;;;;4.10;2.30;;;19.00;17.60;;;;;;5060656;28;20488;-77
2021/04/25 12:15:46;;;;;;;5.20;2.53;;;19.00;15.70;;;;;;5059187;28;20515;-78
2021/04/25 12:18:17;;;;;;;3.07;2.60;;;19.00;14.50;;;;;;5054641;28;20446;-78
2021/04/25 12:20:47;;;;;;;3.00;2.60;;;19.10;15.70;;;;;;5059771;28;20462;-76
2021/04/25 12:23:17;;;;;;;4.27;2.90;;;19.10;16.00;;;;;;5060402;28;20980;-78
2021/04/25 12:25:45;;;;;;;3.30;2.47;;;19.30;17.20;;;;;;5039031;28;20479;-78
2021/04/25 12:28:13;;;;;;;3.20;3.00;;;19.30;17.40;;;;;;5055870;28;20452;-77
2021/04/25 12:30:44;;;;;;;6.10;3.07;;;19.30;16.00;;;;;;5060174;28;20447;-77
2021/04/25 12:33:14;;;;;;;2.90;2.10;;;19.30;16.10;;;;;;5055513;28;20470;-77
2021/04/25 12:35:43;;;;;;;2.50;2.40;;;19.30;15.40;;;;;;5059536;28;21307;-78
2021/04/25 12:38:18;;;;;;;4.03;3.53;;;19.30;14.90;;;;;;5057695;28;20523;-78
2021/04/25 12:40:54;;;;;;;3.77;2.20;;;19.50;16.70;;;;;;5059330;28;20458;-77
2021/04/25 12:43:24;;;;;;;4.73;3.00;;;19.50;16.70;;;;;;5058925;28;20473;-78
2021/04/25 12:45:52;;;;;;;2.97;2.20;;;19.60;15.90;;;;;;5059647;28;20537;-77
2021/04/25 12:48:29;;;;;;;3.47;3.10;;;19.60;17.70;;;;;;5060548;28;20458;-77
2021/04/25 12:51:01;;;;;;;3.63;2.70;;;19.50;15.10;;;;;;5042079;28;20547;-77
2021/04/25 12:53:29;;;;;;;2.63;1.80;;;19.50;15.70;;;;;;5060093;28;20942;-78
2021/04/25 12:55:59;;;;;;;3.00;1.87;;;19.50;15.30;;;;;;5061363;28;20540;-79
2021/04/25 12:58:27;;;;;;;2.87;2.30;;;19.50;16.40;;;;;;5060170;28;20446;-77
2021/04/25 13:00:54;;;;;;;3.70;2.57;;;19.60;16.70;;;;;;5061173;28;20450;-78
2021/04/25 13:03:31;;;;;;;4.93;1.80;;;19.60;15.10;;;;;;5041605;28;20446;-78
2021/04/25 13:06:00;;;;;;;3.23;2.30;;;19.60;13.80;;;;;;5057625;28;20565;-77